Latest Weather Observations for Murrurundi Gap

IDN60801

Issued at 8:32 pm EDT Friday 9 December 2016 (issued every 30 minutes, with the page automatically refreshed every 10 minutes)

About weather observations | Map of weather stations | Latest weather observations for NSW | Other Formats
Station Details ID: 061392 Name: MURRURUNDI GAP AWS Lat: -31.74 Lon: 150.79 Height: 729.4 m
Data from the previous 72 hours. | See also: Recent months at Murrurundi Gap
Date/Time
EDT
Temp
°C
App
Temp
°C
Dew
Point
°C
Rel
Hum
%
Delta-T
°C
Wind Press
QNH
hPa
Press
MSL
hPa
Rain since
9am
mm
Dir  Spd
km/h
Gust
km/h
Spd
kts
Gust
kts
09/08:30pm 17.1 13.1 0.3 32 7.6 SW 11 15 6 8 1017.1 1013.7 0.0
09/08:00pm 17.5 13.2 1.1 33 7.5 WSW 13 17 7 9 1016.9 1013.5 0.0
09/07:30pm 18.6 14.3 1.2 31 8.1 W 13 17 7 9 1016.3 1012.8 0.0
09/07:00pm 19.8 15.0 0.3 27 9.0 W 15 22 8 12 1015.9 1012.4 0.0
09/06:30pm 21.0 17.2 1.8 28 9.2 WSW 11 22 6 12 1015.4 1011.9 0.0
09/06:00pm 20.8 15.6 0.1 25 9.6 W 17 26 9 14 1014.8 1011.3 0.0
09/05:30pm 20.7 16.8 1.1 27 9.3 SW 11 17 6 9 1014.4 1010.8 0.0
09/05:00pm 21.3 16.8 2.1 28 9.3 WNW 15 22 8 12 1014.1 1010.6 0.0
09/04:30pm 20.9 16.3 1.7 28 9.2 WSW 15 24 8 13 1014.1 1010.6 0.0
09/04:00pm 21.3 15.9 2.6 29 9.1 NW 20 26 11 14 1014.0 1010.5 0.0
09/03:30pm 21.1 15.3 2.4 29 9.1 NW 22 30 12 16 1013.9 1010.4 0.0
09/03:00pm 20.7 14.9 2.5 30 8.8 WNW 22 33 12 18 1014.0 1010.5 0.0
09/02:30pm 20.3 15.1 2.2 30 8.7 WNW 19 28 10 15 1014.0 1010.5 0.0
09/02:00pm 19.0 11.9 1.1 30 8.3 NW 28 39 15 21 1013.9 1010.4 0.0
09/01:30pm 19.4 13.6 2.3 32 8.2 NW 22 37 12 20 1014.1 1010.6 0.0
09/01:00pm 19.3 13.9 2.6 33 8.0 WNW 20 30 11 16 1014.3 1010.7 0.0
09/12:30pm 18.4 12.4 3.1 36 7.4 NW 24 35 13 19 1014.1 1010.6 0.0
09/12:00pm 18.0 10.8 3.1 37 7.2 NNW 30 41 16 22 1013.9 1010.4 0.0
09/11:30am 17.3 11.7 3.6 40 6.6 NW 22 35 12 19 1014.0 1010.5 0.0
09/11:00am 16.4 10.9 4.1 44 6.0 NW 22 32 12 17 1013.8 1010.3 0.0
09/10:30am 16.0 10.3 4.7 47 5.5 NW 24 32 13 17 1013.6 1010.1 0.0
09/10:00am 15.6 9.6 5.5 51 5.0 WNW 26 33 14 18 1013.2 1009.6 0.0
09/09:30am 14.9 9.1 4.3 49 5.1 NW 24 41 13 22 1013.1 1009.5 0.0
09/09:00am 14.4 8.9 6.0 57 4.2 NW 24 39 13 21 1012.7 1009.2 9.0
09/08:30am 13.8 7.5 5.9 59 3.9 NNW 28 35 15 19 1012.4 1008.9 9.0
09/08:00am 13.5 8.9 5.7 59 3.8 NNW 19 26 10 14 1012.6 1009.1 9.0
09/07:30am 12.7 8.7 6.5 66 3.1 NNW 17 20 9 11 1012.3 1008.8 9.0
09/07:00am 12.0 9.1 6.3 68 2.8 N 11 13 6 7 1011.8 1008.2 9.0
09/06:30am 12.2 9.7 4.9 61 3.5 WNW 7 13 4 7 1011.1 1007.6 9.0
09/06:00am 12.8 9.5 4.8 58 3.8 WNW 11 15 6 8 1010.7 1007.1 9.0
09/05:30am 12.7 11.5 6.5 66 3.1 S 2 9 1 5 1010.1 1006.5 9.0
09/05:00am 13.5 10.5 5.9 60 3.8 S 11 20 6 11 1009.4 1005.8 9.0
09/04:30am 13.6 10.5 7.4 66 3.2 NW 13 19 7 10 1008.7 1005.1 9.0
09/04:00am 14.0 8.6 7.8 66 3.2 N 26 33 14 18 1008.2 1004.6 9.0
09/03:30am 14.3 10.9 9.1 71 2.8 NNW 17 24 9 13 1007.5 1003.9 9.0
09/03:17am 15.2 10.4 10.2 72 2.7 NNW 26 35 14 19 1007.0 1003.3 9.0
09/03:00am 16.4 10.7 13.1 81 1.9 NW 35 56 19 30 1006.5 1002.9 9.0
09/02:57am 16.8 10.8 13.3 80 2.0 NW 37 56 20 30 1006.4 1002.8 9.0
09/02:43am 17.4 12.2 15.6 89 1.1 NNW 37 54 20 29 1006.1 1002.5 9.0
09/02:30am 17.5 12.3 15.5 88 1.2 NNW 37 46 20 25 1006.1 1002.5 9.0
09/02:00am 17.7 11.6 15.3 86 1.5 NNW 41 57 22 31 1006.1 1002.5 9.0
09/01:30am 18.1 9.8 15.0 82 1.9 NNW 52 69 28 37 1005.7 1002.0 9.0
09/01:06am 18.1 9.5 15.2 83 1.8 NNW 54 72 29 39 1005.7 1002.0 9.0
09/01:00am 18.5 10.4 15.4 82 1.9 NNW 52 63 28 34 1005.8 1002.1 9.0
09/12:53am 18.6 11.5 16.0 85 1.6 NNW 48 63 26 34 1005.9 1002.3 9.0
09/12:30am 18.2 13.5 15.8 86 1.5 NNW 35 43 19 23 1006.2 1002.6 9.0
09/12:00am 18.3 16.0 15.7 85 1.6 N 22 26 12 14 1006.6 1003.0 9.0
 
Date/Time
EDT
Temp
°C
App
Temp
°C
Dew
Point
°C
Rel
Hum
%
Delta-T
°C
Wind Press
QNH
hPa
Press
MSL
hPa
Rain since
9am
mm
Dir  Spd
km/h
Gust
km/h
Spd
kts
Gust
kts
08/11:30pm 18.2 18.3 15.6 85 1.6 NW 9 13 5 7 1006.6 1003.0 9.0
08/11:00pm 19.0 19.5 15.5 80 2.1 NNW 7 11 4 6 1007.0 1003.3 9.0
08/10:30pm 18.9 18.1 16.1 84 1.7 N 15 24 8 13 1007.2 1003.6 9.0
08/10:28pm 18.3 17.9 16.1 87 1.4 N 13 20 7 11 1007.2 1003.6 9.0
08/10:14pm 17.6 15.8 16.1 91 0.9 W 20 39 11 21 1007.4 1003.8 8.6
08/10:00pm 17.4 12.5 15.2 87 1.3 NW 35 80 19 43 1006.2 1002.6 7.2
08/09:58pm 20.4 17.2 17.2 82 2.0 NW 30 74 16 40 1005.9 1002.3 5.8
08/09:57pm 20.8 18.2 17.8 83 1.9 NNW 28 50 15 27 1005.8 1002.1 5.8
08/09:30pm 21.0 17.6 17.8 82 2.0 N 32 46 17 25 1004.9 1001.3 5.8
08/09:00pm 21.2 20.3 18.2 83 1.9 NNW 20 30 11 16 1005.0 1001.4 5.8
08/08:30pm 22.5 20.3 17.8 75 3.0 N 26 43 14 23 1004.9 1001.3 5.6
08/08:00pm 23.7 20.7 17.7 69 3.9 NNW 30 50 16 27 1004.6 1000.9 5.6
08/07:30pm 23.9 21.3 17.9 69 3.9 N 28 46 15 25 1004.2 1000.5 5.6
08/07:29pm 24.0 21.4 17.7 68 4.0 N 28 46 15 25 1004.2 1000.5 5.6
08/07:00pm 24.4 23.3 17.4 65 4.5 N 19 26 10 14 1003.9 1000.3 5.6
08/06:30pm 24.1 23.4 17.4 66 4.3 N 17 24 9 13 1004.2 1000.5 5.6
08/06:00pm 23.9 23.3 17.6 68 4.1 N 17 28 9 15 1004.4 1000.7 5.6
08/05:30pm 21.4 18.9 14.1 63 4.4 SSE 20 30 11 16 1004.7 1001.1 5.6
08/05:00pm 24.3 22.9 18.0 68 4.1 NNW 22 35 12 19 1004.4 1000.7 5.6
08/04:30pm 24.8 23.7 17.8 65 4.5 NNW 20 32 11 17 1004.5 1000.8 5.6
08/04:00pm 24.6 22.9 18.1 67 4.2 NW 24 32 13 17 1005.3 1001.7 5.6
08/03:30pm 23.4 21.4 19.1 77 2.8 N 28 35 15 19 1006.0 1002.4 5.6
08/03:00pm 20.0 19.4 18.8 93 0.8 NW 20 26 11 14 1007.3 1003.7 5.6
08/02:30pm 19.7 15.9 18.2 91 1.0 NNW 35 48 19 26 1006.8 1003.2 5.4
08/02:05pm 21.9 19.2 18.5 81 2.2 NNW 30 50 16 27 1007.5 1003.9 5.0
08/02:00pm 22.3 20.2 18.9 81 2.2 NNW 28 35 15 19 1007.5 1003.9 5.0
08/01:30pm 22.8 21.4 20.5 87 1.5 NNW 28 32 15 17 1007.7 1004.1 5.0
08/01:05pm 20.1 19.5 19.8 98 0.2 NNW 22 28 12 15 1008.7 1005.1 5.0
08/01:00pm 18.6 16.4 17.8 95 0.5 NW 26 33 14 18 1008.7 1005.1 5.0
08/12:38pm 19.4 13.8 17.9 91 1.0 NNW 44 74 24 40 1008.7 1005.1 2.4
08/12:37pm 20.1 14.7 17.9 87 1.4 NNW 43 67 23 36 1008.7 1005.1 1.2
08/12:30pm 23.3 19.3 18.6 75 3.1 NNW 37 48 20 26 1008.8 1005.2 0.2
08/12:00pm 23.0 21.3 19.0 78 2.6 NNW 26 41 14 22 1009.6 1006.1 0.2
08/11:30am 22.1 19.0 18.3 79 2.4 NNW 32 41 17 22 1010.3 1006.7 0.2
08/11:00am 22.2 19.3 18.8 81 2.2 NNW 32 43 17 23 1010.5 1006.9 0.2
08/10:30am 21.9 19.9 19.1 84 1.8 NNW 28 39 15 21 1011.0 1007.5 0.2
08/10:00am 21.8 19.5 18.4 81 2.2 NNW 28 39 15 21 1011.2 1007.7 0.2
08/09:30am 21.2 17.8 16.8 76 2.8 NNW 30 41 16 22 1011.6 1008.0 0.0
08/09:00am 21.9 19.2 16.6 72 3.3 NNW 26 33 14 18 1012.0 1008.5 0.0
08/08:30am 21.7 18.6 16.6 73 3.2 NNW 28 37 15 20 1012.0 1008.5 0.0
08/08:00am 21.2 19.4 17.0 77 2.6 N 22 33 12 18 1012.2 1008.7 0.0
08/07:30am 20.3 18.2 16.3 78 2.5 N 22 30 12 16 1012.3 1008.8 0.0
08/07:00am 20.0 18.3 16.2 79 2.4 N 20 30 11 16 1012.4 1008.9 0.0
08/06:30am 19.3 18.5 16.0 81 2.0 NNW 15 20 8 11 1012.5 1009.0 0.0
08/06:00am 19.4 18.9 15.9 80 2.2 NNW 13 19 7 10 1012.4 1008.9 0.0
08/05:30am 19.4 18.9 15.9 80 2.2 NNW 13 17 7 9 1012.2 1008.7 0.0
08/05:00am 19.2 19.8 15.7 80 2.1 NW 7 11 4 6 1012.4 1008.9 0.0
08/04:30am 19.5 19.7 15.8 79 2.3 N 9 13 5 7 1012.5 1009.0 0.0
08/04:00am 19.1 18.8 15.4 79 2.3 ENE 11 17 6 9 1012.5 1009.0 0.0
08/03:30am 18.7 18.8 15.6 82 1.9 E 9 17 5 9 1012.7 1009.2 0.0
08/03:00am 17.3 17.7 15.3 88 1.2 SE 7 11 4 6 1012.9 1009.3 0.0
08/02:30am 17.3 17.4 15.5 89 1.1 SE 9 11 5 6 1013.3 1009.8 0.0
08/02:00am 16.7 15.9 15.1 90 1.0 SE 13 15 7 8 1013.5 1010.0 0.0
08/01:30am 17.1 16.4 15.4 90 1.0 SE 13 17 7 9 1013.9 1010.4 0.0
08/01:00am 17.5 16.8 15.5 88 1.2 SE 13 15 7 8 1014.4 1010.8 0.0
08/12:30am 17.2 16.5 15.4 89 1.1 SE 13 17 7 9 1014.9 1011.4 0.0
08/12:00am 17.8 16.8 15.6 87 1.3 SE 15 17 8 9 1015.1 1011.6 0.0
 
Date/Time
EDT
Temp
°C
App
Temp
°C
Dew
Point
°C
Rel
Hum
%
Delta-T
°C
Wind Press
QNH
hPa
Press
MSL
hPa
Rain since
9am
mm
Dir  Spd
km/h
Gust
km/h
Spd
kts
Gust
kts
07/11:30pm 17.7 16.7 15.7 88 1.2 SE 15 17 8 9 1015.4 1011.9 0.0
07/11:00pm 17.9 17.5 16.1 89 1.1 SE 13 15 7 8 1015.5 1012.0 0.0
07/10:30pm 18.4 18.0 16.2 87 1.4 SE 13 15 7 8 1015.6 1012.1 0.0
07/10:00pm 18.5 18.1 16.3 87 1.4 SE 13 13 7 7 1015.6 1012.1 0.0
07/09:30pm 18.2 17.9 16.5 90 1.1 SE 13 17 7 9 1015.5 1012.0 0.0
07/09:00pm 18.2 17.2 16.5 90 1.0 SE 17 19 9 10 1015.4 1011.9 0.0
07/08:30pm 18.7 17.7 16.5 87 1.4 SSE 17 20 9 11 1015.4 1011.9 0.0
07/08:00pm 19.3 17.8 16.3 83 1.9 SSE 19 22 10 12 1015.5 1012.0 0.0
07/07:30pm 19.9 18.2 16.3 80 2.2 SE 20 24 11 13 1015.2 1011.7 0.0
07/07:00pm 20.5 18.8 15.7 74 3.0 SE 19 22 10 12 1015.3 1011.8 0.0
07/06:30pm 21.1 19.7 15.6 71 3.4 SE 17 24 9 13 1014.9 1011.4 0.0
07/06:00pm 21.3 19.7 16.0 72 3.3 SE 19 24 10 13 1015.4 1011.9 0.0
07/05:30pm 22.2 20.9 16.7 71 3.5 SE 19 24 10 13 1015.2 1011.7 0.0
07/05:00pm 21.2 19.4 16.0 72 3.2 SE 20 26 11 14 1015.2 1011.7 0.0
07/04:30pm 22.6 21.5 17.3 72 3.4 SE 19 28 10 15 1015.4 1011.9 0.0
07/04:00pm 22.1 20.2 16.6 71 3.5 SSE 22 30 12 16 1015.6 1012.1 0.0
07/03:30pm 21.9 20.0 16.8 73 3.2 SE 22 30 12 16 1015.9 1012.4 0.0
07/03:10pm 21.7 20.4 16.9 74 3.0 SE 19 28 10 15 1016.2 1012.7 0.0
07/03:00pm 21.2 19.6 16.0 72 3.2 SE 19 24 10 13 1016.2 1012.7 0.0
07/02:52pm 20.5 18.7 16.1 76 2.7 SE 20 28 11 15 1016.3 1012.8 0.0
07/02:30pm 20.7 19.4 16.9 79 2.4 SE 19 28 10 15 1016.7 1013.2 0.0
07/02:24pm 20.7 19.7 17.5 82 2.0 SE 19 28 10 15 1016.7 1013.2 0.0
07/02:00pm 19.9 18.5 16.9 83 1.9 SE 20 28 11 15 1016.6 1013.1 0.0
07/01:30pm 18.2 16.0 16.0 87 1.3 SE 22 28 12 15 1016.7 1013.2 0.0
07/01:00pm 17.9 15.8 16.2 90 1.0 SE 22 28 12 15 1016.8 1013.3 0.0
07/12:30pm 17.3 15.8 16.8 97 0.3 SE 20 26 11 14 1017.1 1013.7 0.0
07/12:00pm 16.5 14.8 16.3 99 0.1 SSE 20 24 11 13 1017.0 1013.6 0.0
07/11:41am 16.3 14.2 16.1 99 0.1 S 22 26 12 14 1017.0 1013.6 0.0
07/11:30am 16.0 14.1 15.8 99 0.1 S 20 26 11 14 1017.0 1013.6 0.0
07/11:00am 15.7 13.7 15.5 99 0.1 SSE 20 24 11 13 1017.1 1013.7 0.0
07/10:30am 16.1 14.3 15.9 99 0.1 SSE 20 26 11 14 1017.0 1013.6 0.0
07/10:00am 15.5 13.1 15.3 99 0.1 S 22 28 12 15 1016.8 1013.3 0.0
07/09:30am 15.8 13.5 15.6 99 0.1 SSE 22 28 12 15 1016.6 1013.1 0.0
07/09:00am 15.6 12.8 15.4 99 0.1 SSE 24 28 13 15 1016.5 1013.0 5.0
07/08:30am 15.7 13.0 15.5 99 0.1 SSE 24 30 13 16 1016.3 1012.8 5.0
07/08:00am 15.4 13.3 15.2 99 0.1 SSE 20 28 11 15 1016.2 1012.7 5.0
07/07:30am 15.4 12.9 15.2 99 0.1 SSE 22 32 12 17 1015.9 1012.4 4.8
07/07:22am 15.5 13.0 15.2 98 0.2 SSE 22 30 12 16 1015.6 1012.1 4.8
07/07:00am 15.5 12.6 15.0 97 0.3 SSE 24 33 13 18 1014.9 1011.4 4.8
07/06:52am 15.5 12.2 15.0 97 0.3 SSE 26 33 14 18 1014.8 1011.3 4.8
07/06:37am 15.4 12.4 14.8 96 0.4 S 24 32 13 17 1014.7 1011.2 4.8
07/06:30am 15.5 12.2 14.9 96 0.4 S 26 35 14 19 1014.5 1011.0 4.8
07/06:00am 15.6 12.7 15.1 97 0.3 SSE 24 32 13 17 1014.8 1011.3 4.8
07/05:30am 15.7 12.9 15.4 98 0.2 S 24 32 13 17 1014.6 1011.1 4.8
07/05:00am 15.8 13.5 15.6 99 0.1 SSE 22 33 12 18 1014.1 1010.6 4.8
07/04:43am 16.1 13.5 15.9 99 0.1 S 24 33 13 18 1013.9 1010.4 4.8
07/04:30am 16.4 13.9 16.2 99 0.1 SSE 24 33 13 18 1013.5 1010.0 4.8
07/04:00am 16.8 15.4 16.6 99 0.1 SE 19 24 10 13 1013.5 1010.0 4.4
07/03:55am 16.9 15.6 16.7 99 0.1 SE 19 24 10 13 1013.6 1010.1 4.4
07/03:32am 17.2 15.0 17.0 99 0.1 SSW 24 33 13 18 1013.9 1010.4 4.4
07/03:30am 17.3 15.6 17.1 99 0.1 SSW 22 30 12 16 1013.8 1010.3 4.4
07/03:00am 18.0 19.0 17.8 99 0.1 SE 9 17 5 9 1013.7 1010.2 4.4
07/02:32am 18.3 19.8 18.1 99 0.1 ESE 7 9 4 5 1014.7 1011.2 4.2
07/02:30am 18.3 19.8 18.1 99 0.1 ESE 7 9 4 5 1014.7 1011.2 4.2
07/02:20am 18.4 20.0 18.2 99 0.1 E 7 11 4 6 1014.9 1011.4 4.0
07/02:00am 19.1 21.9 18.9 99 0.1 WSW 2 7 1 4 1015.1 1011.6 3.4
07/01:30am 19.2 20.4 19.0 99 0.1 ESE 11 13 6 7 1014.3 1010.7 3.0
07/01:25am 19.2 20.7 19.0 99 0.1 ESE 9 13 5 7 1014.6 1011.1 3.0
07/01:00am 19.2 20.7 19.0 99 0.1 SSE 9 11 5 6 1014.5 1011.0 3.0
07/12:57am 19.2 20.7 19.0 99 0.1 SSE 9 11 5 6 1014.5 1011.0 3.0
07/12:30am 19.3 20.9 19.1 99 0.1 E 9 13 5 7 1014.9 1011.4 3.0
07/12:00am 19.3 20.9 19.1 99 0.1 SSE 9 11 5 6 1014.7 1011.2 3.0
 
Date/Time
EDT
Temp
°C
App
Temp
°C
Dew
Point
°C
Rel
Hum
%
Delta-T
°C
Wind Press
QNH
hPa
Press
MSL
hPa
Rain since
9am
mm
Dir  Spd
km/h
Gust
km/h
Spd
kts
Gust
kts
06/11:30pm 19.7 21.1 19.5 99 0.1 SE 11 13 6 7 1014.7 1011.2 2.8
06/11:24pm 19.6 20.9 19.4 99 0.1 ESE 11 13 6 7 1014.7 1011.2 2.8
06/11:00pm 19.5 21.6 19.3 99 0.1 SSE 7 11 4 6 1015.2 1011.7 2.4
06/10:56pm 19.6 21.7 19.4 99 0.1 SE 7 9 4 5 1015.3 1011.8 2.4
06/10:33pm 19.6 20.9 19.4 99 0.1 SE 11 11 6 6 1015.8 1012.3 1.6
06/10:30pm 19.6 20.9 19.4 99 0.1 SE 11 13 6 7 1015.9 1012.4 1.6
06/10:00pm 19.7 20.9 19.0 96 0.5 S 11 15 6 8 1015.6 1012.1 1.0
06/09:58pm 19.7 20.5 19.0 96 0.5 S 13 15 7 8 1015.5 1012.0 1.0
06/09:30pm 20.6 21.1 18.4 87 1.4 SE 13 17 7 9 1015.0 1011.5 0.6
06/09:00pm 21.2 21.0 17.6 80 2.3 SE 15 17 8 9 1014.7 1011.2 0.2

Other Formats:

Comma delimited format used in spreadsheet applications
http://www.bom.gov.au/fwo/IDN60801/IDN60801.95747.axf

JavaScript Object Notation format (JSON) in row-major order
http://www.bom.gov.au/fwo/IDN60801/IDN60801.95747.json